Main page
METAR-TAF:

METAR-TAF

Airports :

St. Paul Downtown Airport

Saint Paul, Minnesota, United States

latitude: 44-55-49N, longitude: 093-02-53W, elevation: 702 ft

Current weather observation

The report was made 14 minutes ago, at 06:53 UTC
Calm wind
Temperature 57°F
Humidity 77%
Pressure 30.13 in. Hg
Visibility: 10 miles
Clear sky

METAR: KSTP 180653Z AUTO 00000KT 10SM CLR 14/10 A3013 RMK AO2 SLP200 T01390100

Time: 02:07 (07:07 UTC)


TAF: missing

Weather observations and forecasts of more than 4000 airports (METAR and TAF reports).

The available stations are represented by yellow and red dots on the map.

Hover mouse over dot to see the name of the station.

Then click to see weather observations and forecasts.

To change the map : click on the green buttons with a black cross to zoom in, on the green button with a dash to zoom out, or on the green arrows for adjacent maps.


METAR-TAF: